createdAt,value
2023-03-27T00:00:36.944Z,5.77
2023-03-27T00:03:06.573Z,5.95
2023-03-27T00:05:36.320Z,5.86
2023-03-27T00:08:07.054Z,6.08
2023-03-27T00:10:38.858Z,5.90
2023-03-27T00:13:11.071Z,5.76
2023-03-27T00:15:44.068Z,5.48
2023-03-27T00:18:14.358Z,5.67
2023-03-27T00:20:45.456Z,5.88
2023-03-27T00:23:14.884Z,5.54
2023-03-27T00:25:43.935Z,5.47
2023-03-27T00:28:14.812Z,5.35
2023-03-27T00:30:44.615Z,5.21
2023-03-27T00:33:14.399Z,5.38
2023-03-27T00:35:48.026Z,5.62
2023-03-27T00:38:19.270Z,5.43
2023-03-27T00:40:51.721Z,5.27
2023-03-27T00:43:21.569Z,4.97
2023-03-27T00:45:54.086Z,4.76
2023-03-27T00:48:23.890Z,4.55
2023-03-27T00:50:54.496Z,3.74
2023-03-27T00:53:28.128Z,4.94
2023-03-27T00:56:04.393Z,4.85
2023-03-27T00:58:48.157Z,4.94
2023-03-27T02:04:24.711Z,10.39
2023-03-27T02:07:01.517Z,10.63
2023-03-27T02:09:40.253Z,10.78
2023-03-27T02:12:21.156Z,10.85
2023-03-27T02:15:23.612Z,11.19
2023-03-27T02:17:58.309Z,11.41
2023-03-27T02:40:40.091Z,14.57
2023-03-27T02:43:35.012Z,14.99
2023-03-27T02:46:21.791Z,15.13
2023-03-27T02:48:57.946Z,14.95
2023-03-27T02:51:33.877Z,15.11
2023-03-27T02:54:07.991Z,15.41
2023-03-27T02:56:45.889Z,15.63
2023-03-27T02:59:31.770Z,15.82
2023-03-27T03:02:02.473Z,15.96
2023-03-27T03:04:47.997Z,16.47
2023-03-27T03:07:28.648Z,16.57
2023-03-27T03:09:57.960Z,16.51
2023-03-27T03:12:26.865Z,16.29
2023-03-27T03:14:58.441Z,16.60
2023-03-27T03:17:27.588Z,16.51
2023-03-27T03:19:56.588Z,16.52
2023-03-27T03:22:28.145Z,16.68
2023-03-27T03:24:58.346Z,16.96
2023-03-27T03:27:31.232Z,16.89
2023-03-27T03:30:16.919Z,17.40
2023-03-27T03:33:10.891Z,17.67
2023-03-27T03:35:40.401Z,17.89
2023-03-27T03:38:29.090Z,18.03
2023-03-27T03:41:02.765Z,17.13
2023-03-27T03:43:33.350Z,17.73
2023-03-27T03:46:02.628Z,17.42
2023-03-27T03:48:31.886Z,18.02
2023-03-27T03:51:01.651Z,18.11
2023-03-27T03:53:30.805Z,17.71
2023-03-27T03:55:59.965Z,17.34
2023-03-27T03:58:34.871Z,17.63
2023-03-27T04:01:07.127Z,17.27
2023-03-27T04:03:45.052Z,17.06
2023-03-27T04:06:20.461Z,16.83
2023-03-27T04:08:50.853Z,16.67
2023-03-27T04:11:51.579Z,16.23
2023-03-27T04:14:46.902Z,16.39
2023-03-27T04:17:34.666Z,16.26
2023-03-27T04:20:07.988Z,16.24
2023-03-27T04:22:38.826Z,16.02
2023-03-27T04:25:10.869Z,16.41
2023-03-27T04:27:40.111Z,16.26
2023-03-27T04:30:17.679Z,16.27
2023-03-27T04:33:20.064Z,15.73
2023-03-27T04:36:21.844Z,15.28
2023-03-27T04:39:03.610Z,14.83
2023-03-27T04:41:34.311Z,14.88
2023-03-27T04:44:03.367Z,14.81
2023-03-27T04:46:33.374Z,14.72
2023-03-27T04:49:08.969Z,15.14
2023-03-27T04:51:49.905Z,15.52
2023-03-27T04:54:19.958Z,14.93
2023-03-27T04:56:48.904Z,14.89
2023-03-27T04:59:18.401Z,15.03
2023-03-27T05:01:58.876Z,15.12
2023-03-27T05:04:46.895Z,15.41
2023-03-27T05:07:21.010Z,15.32
2023-03-27T05:09:50.166Z,15.31
2023-03-27T05:12:19.274Z,15.23
2023-03-27T05:14:55.091Z,15.41
2023-03-27T05:17:41.714Z,15.39
2023-03-27T05:20:15.769Z,14.67
2023-03-27T05:22:47.568Z,14.62
2023-03-27T05:25:32.012Z,14.67
2023-03-27T05:28:04.208Z,14.80
2023-03-27T05:30:36.853Z,14.50
2023-03-27T05:33:21.555Z,14.76
2023-03-27T05:35:54.135Z,15.20
2023-03-27T05:38:24.010Z,15.13
2023-03-27T05:41:14.561Z,15.51
2023-03-27T05:43:50.149Z,15.74
2023-03-27T05:46:21.966Z,15.68
2023-03-27T05:49:02.678Z,16.18
2023-03-27T05:51:32.806Z,16.51
2023-03-27T05:54:02.325Z,17.13
2023-03-27T05:56:50.048Z,16.87
2023-03-27T05:59:20.264Z,17.28
2023-03-27T06:01:51.923Z,15.96
2023-03-27T06:04:27.140Z,15.79
2023-03-27T06:07:04.720Z,15.18
2023-03-27T06:09:34.479Z,15.02
2023-03-27T06:12:26.139Z,14.78
2023-03-27T06:15:05.771Z,14.44
2023-03-27T06:17:45.623Z,14.33
2023-03-27T06:20:16.479Z,14.03
2023-03-27T06:22:56.449Z,14.49
2023-03-27T06:25:35.615Z,14.29
2023-03-27T06:28:09.094Z,16.90
2023-03-27T06:30:44.499Z,16.44
2023-03-27T06:33:40.823Z,16.01
2023-03-27T06:36:23.065Z,15.57
2023-03-27T06:38:55.257Z,15.68
2023-03-27T06:41:24.900Z,16.62
2023-03-27T06:44:09.181Z,16.67
2023-03-27T06:47:03.435Z,15.87
2023-03-27T06:49:49.619Z,15.42
2023-03-27T06:52:23.969Z,16.03
2023-03-27T06:54:57.669Z,16.15
2023-03-27T06:57:27.487Z,16.14
2023-03-27T07:00:02.603Z,16.42
2023-03-27T07:03:00.398Z,16.00
2023-03-27T07:05:50.456Z,15.34
2023-03-27T07:08:24.746Z,14.84
2023-03-27T07:11:10.910Z,14.93
2023-03-27T07:13:59.865Z,14.87
2023-03-27T07:16:32.152Z,14.50
2023-03-27T07:19:02.887Z,14.29
2023-03-27T07:21:35.050Z,14.29
2023-03-27T07:24:05.902Z,14.44
2023-03-27T07:26:38.511Z,14.26
2023-03-27T07:29:39.982Z,14.32
2023-03-27T07:32:09.633Z,14.32
2023-03-27T07:34:42.136Z,14.00
2023-03-27T07:37:15.438Z,13.86
2023-03-27T07:40:06.002Z,13.58
2023-03-27T07:42:35.670Z,13.87
2023-03-27T07:45:08.137Z,13.15
2023-03-27T07:47:37.621Z,13.50
2023-03-27T07:50:11.982Z,13.73
2023-03-27T07:52:44.485Z,13.68
2023-03-27T07:55:19.994Z,13.61
2023-03-27T07:58:02.752Z,13.46
2023-03-27T08:00:39.878Z,13.35
2023-03-27T08:03:15.494Z,13.15
2023-03-27T08:05:56.315Z,13.31
2023-03-27T08:08:29.118Z,13.10
2023-03-27T08:11:00.957Z,13.19
2023-03-27T08:13:36.256Z,13.34
2023-03-27T08:16:18.680Z,13.17
2023-03-27T08:18:48.515Z,13.06
2023-03-27T08:21:18.962Z,12.88
2023-03-27T08:23:51.653Z,12.50
2023-03-27T08:26:37.302Z,12.59
2023-03-27T08:29:13.134Z,12.27
2023-03-27T08:31:45.200Z,12.15
2023-03-27T08:34:14.949Z,12.29
2023-03-27T08:36:50.957Z,12.12
2023-03-27T08:39:24.552Z,11.99
2023-03-27T08:42:00.018Z,12.09
2023-03-27T08:44:35.465Z,11.99
2023-03-27T08:47:28.185Z,11.95
2023-03-27T08:50:13.012Z,12.21
2023-03-27T08:52:49.746Z,11.83
2023-03-27T08:55:56.756Z,12.03
2023-03-27T08:58:35.599Z,11.94
2023-03-27T09:01:30.516Z,12.18
2023-03-27T09:04:22.430Z,12.45
2023-03-27T09:07:14.242Z,12.64
2023-03-27T09:10:09.243Z,12.85
2023-03-27T09:13:09.169Z,13.90
2023-03-27T09:15:42.704Z,13.81
2023-03-27T09:18:54.406Z,15.24
2023-03-27T09:21:36.599Z,15.96
2023-03-27T09:24:36.982Z,16.69
2023-03-27T09:27:38.744Z,17.09
2023-03-27T09:30:32.839Z,17.71
2023-03-27T09:33:08.267Z,18.15
2023-03-27T09:35:39.561Z,18.43
2023-03-27T09:38:43.184Z,18.48
2023-03-27T09:41:41.307Z,18.78
2023-03-27T09:44:14.046Z,18.13
2023-03-27T09:46:50.134Z,18.41
2023-03-27T09:49:21.978Z,18.09
2023-03-27T09:52:00.883Z,18.32
2023-03-27T09:54:54.806Z,18.57
2023-03-27T09:57:35.031Z,18.37
2023-03-27T10:00:44.783Z,18.52
2023-03-27T10:03:21.040Z,18.24
2023-03-27T10:06:36.018Z,17.91
2023-03-27T10:09:35.679Z,17.06
2023-03-27T10:12:10.487Z,15.92
2023-03-27T10:14:45.197Z,15.80
2023-03-27T10:17:41.894Z,16.72
2023-03-27T10:20:21.445Z,16.00
2023-03-27T10:23:03.655Z,15.29
2023-03-27T10:25:43.258Z,14.91
2023-03-27T10:28:50.504Z,14.36
2023-03-27T10:31:35.683Z,14.11
2023-03-27T10:34:33.668Z,13.99
2023-03-27T10:37:33.766Z,13.46
2023-03-27T10:40:33.793Z,13.52
2023-03-27T10:43:20.506Z,13.43
2023-03-27T10:45:56.031Z,13.15
2023-03-27T10:49:05.859Z,12.87
2023-03-27T10:52:14.335Z,12.94
2023-03-27T10:55:28.412Z,12.75
2023-03-27T10:58:04.713Z,12.67
2023-03-27T11:03:40.605Z,12.23
2023-03-27T11:06:16.532Z,12.35
2023-03-27T11:09:17.065Z,12.12
2023-03-27T11:12:09.489Z,12.00
2023-03-27T11:15:06.435Z,11.83
2023-03-27T11:17:50.255Z,11.52
2023-03-27T11:20:54.655Z,11.22
2023-03-27T11:23:53.962Z,10.84
2023-03-27T11:26:43.219Z,10.58
2023-03-27T11:29:41.200Z,11.53
2023-03-27T11:32:46.813Z,12.42
2023-03-27T11:35:24.379Z,12.61
2023-03-27T11:38:26.052Z,12.74
2023-03-27T11:40:57.343Z,12.75
2023-03-27T11:43:27.818Z,12.56
2023-03-27T11:46:14.859Z,12.67
2023-03-27T11:49:02.485Z,12.45
2023-03-27T11:51:58.294Z,12.31
2023-03-27T11:54:50.417Z,12.28
2023-03-27T11:57:28.427Z,12.06
2023-03-27T12:00:17.216Z,11.91
2023-03-27T12:03:09.575Z,11.72
2023-03-27T12:06:23.841Z,11.43
2023-03-27T12:09:16.849Z,11.17
2023-03-27T12:12:19.764Z,11.38
2023-03-27T12:15:00.146Z,11.46
2023-03-27T12:18:10.473Z,11.52
2023-03-27T12:21:05.532Z,11.37
2023-03-27T12:23:45.346Z,11.37
2023-03-27T12:27:06.097Z,11.35
2023-03-27T12:30:27.677Z,11.36
2023-03-27T12:33:08.826Z,11.24
2023-03-27T12:35:47.122Z,11.19
2023-03-27T12:38:34.304Z,11.16
2023-03-27T12:41:22.362Z,11.11
2023-03-27T12:44:05.584Z,10.90
2023-03-27T12:46:41.725Z,10.94
2023-03-27T12:49:13.909Z,10.76
2023-03-27T12:51:59.019Z,10.65
2023-03-27T12:55:05.418Z,10.52
2023-03-27T12:58:06.305Z,10.34
2023-03-27T13:01:01.310Z,10.20
2023-03-27T13:03:58.023Z,10.27
2023-03-27T13:07:01.177Z,10.20
2023-03-27T13:09:56.207Z,9.98
2023-03-27T13:12:45.096Z,10.04
2023-03-27T13:15:27.122Z,9.98
2023-03-27T13:18:01.463Z,9.89
2023-03-27T13:21:11.571Z,9.76
2023-03-27T13:24:17.746Z,9.62
2023-03-27T13:27:27.658Z,9.39
2023-03-27T13:29:57.089Z,9.19
2023-03-27T13:32:43.838Z,9.17
2023-03-27T13:35:58.701Z,9.20
2023-03-27T13:38:47.092Z,9.06
2023-03-27T13:41:47.336Z,8.98
2023-03-27T13:44:31.260Z,8.89
2023-03-27T13:47:09.140Z,8.85
2023-03-27T13:49:57.780Z,8.75
2023-03-27T13:52:54.628Z,8.70
2023-03-27T13:56:07.809Z,8.54
2023-03-27T13:59:39.832Z,8.48
2023-03-27T14:02:49.294Z,8.41
2023-03-27T14:06:13.236Z,8.28
2023-03-27T14:09:16.996Z,8.38
2023-03-27T14:12:39.990Z,8.30
2023-03-27T14:15:50.422Z,8.25
2023-03-27T14:19:04.841Z,8.22
2023-03-27T14:21:54.459Z,8.06
2023-03-27T14:24:50.393Z,8.16
2023-03-27T14:27:41.664Z,8.06
2023-03-27T14:30:17.383Z,8.16
2023-03-27T14:32:57.960Z,8.04
2023-03-27T14:35:46.094Z,8.03
2023-03-27T14:38:27.398Z,7.99
2023-03-27T14:40:59.573Z,8.09
2023-03-27T14:43:57.797Z,7.91
2023-03-27T14:46:27.685Z,7.92
2023-03-27T14:49:01.344Z,7.94
2023-03-27T14:51:38.325Z,8.03
2023-03-27T14:54:28.318Z,8.17
2023-03-27T14:57:09.849Z,8.10
2023-03-27T14:59:47.410Z,7.95
2023-03-27T15:02:21.947Z,8.17
2023-03-27T15:05:10.665Z,8.07
2023-03-27T15:07:43.675Z,7.94
2023-03-27T15:10:23.242Z,8.13
2023-03-27T15:13:12.242Z,8.19
2023-03-27T15:15:51.066Z,8.11
2023-03-27T15:18:35.158Z,7.93
2023-03-27T15:21:16.117Z,7.61
2023-03-27T15:24:01.674Z,7.70
2023-03-27T15:26:36.402Z,7.55
2023-03-27T15:29:23.885Z,7.46
2023-03-27T15:31:54.555Z,7.53
2023-03-27T15:34:35.592Z,7.50
2023-03-27T15:37:12.039Z,7.28
2023-03-27T15:39:59.942Z,7.00
2023-03-27T15:42:52.466Z,6.87
2023-03-27T15:45:41.331Z,6.83
2023-03-27T15:48:20.953Z,6.72
2023-03-27T15:51:04.813Z,6.66
2023-03-27T15:53:42.853Z,6.59
2023-03-27T15:56:14.842Z,6.52
2023-03-27T15:59:03.243Z,6.46
2023-03-27T16:01:38.683Z,6.37
2023-03-27T16:04:14.690Z,6.41
2023-03-27T16:06:47.638Z,6.28
2023-03-27T16:09:30.128Z,6.24
2023-03-27T16:11:59.962Z,6.18
2023-03-27T16:14:33.187Z,6.15
2023-03-27T16:17:19.885Z,6.13
2023-03-27T16:20:02.188Z,6.05
2023-03-27T16:22:37.476Z,6.07
2023-03-27T16:25:11.534Z,6.04
2023-03-27T16:27:46.803Z,5.97
2023-03-27T16:30:35.308Z,5.78
2023-03-27T16:33:05.617Z,5.86
2023-03-27T16:35:34.728Z,5.85
2023-03-27T16:38:03.810Z,5.84
2023-03-27T16:40:32.691Z,5.76
2023-03-27T16:43:01.807Z,5.71
2023-03-27T16:45:31.490Z,5.74
2023-03-27T16:48:00.215Z,5.71
2023-03-27T16:50:30.615Z,5.51
2023-03-27T16:52:59.670Z,5.77
2023-03-27T16:55:28.963Z,5.97
2023-03-27T16:57:58.249Z,6.20
2023-03-27T17:00:27.942Z,5.94
2023-03-27T17:02:56.826Z,5.89
2023-03-27T17:05:27.056Z,5.85
2023-03-27T17:07:57.232Z,5.75
2023-03-27T17:10:26.547Z,5.64
2023-03-27T17:12:55.807Z,5.53
2023-03-27T17:15:25.039Z,5.48
2023-03-27T17:17:55.556Z,5.48
2023-03-27T17:20:25.201Z,5.40
2023-03-27T17:22:54.024Z,5.21
2023-03-27T17:25:23.014Z,5.41
2023-03-27T17:27:51.976Z,5.26
2023-03-27T17:30:34.540Z,5.28
2023-03-27T17:33:07.076Z,5.20
2023-03-27T17:35:38.864Z,5.15
2023-03-27T17:38:08.599Z,5.16
2023-03-27T17:40:42.632Z,5.20
2023-03-27T17:43:13.269Z,5.22
2023-03-27T17:45:43.232Z,5.14
2023-03-27T17:48:13.019Z,5.04
2023-03-27T17:50:41.982Z,5.25
2023-03-27T17:53:11.432Z,5.52
2023-03-27T17:55:42.012Z,5.48
2023-03-27T17:58:13.088Z,5.77
2023-03-27T18:00:42.294Z,5.54
2023-03-27T18:03:12.219Z,5.47
2023-03-27T18:05:44.183Z,5.29
2023-03-27T18:08:15.341Z,5.17
2023-03-27T18:10:52.264Z,5.20
2023-03-27T18:13:21.404Z,4.94
2023-03-27T18:15:59.382Z,5.10
2023-03-27T18:18:28.452Z,5.24
2023-03-27T18:20:57.199Z,5.20
2023-03-27T18:23:26.625Z,5.28
2023-03-27T18:25:56.290Z,5.16
2023-03-27T18:28:26.841Z,5.38
2023-03-27T18:31:04.340Z,5.55
2023-03-27T18:33:33.971Z,5.68
2023-03-27T18:36:58.453Z,5.79
2023-03-27T18:39:31.485Z,5.75
2023-03-27T18:42:03.415Z,5.87
2023-03-27T18:45:08.235Z,6.11
2023-03-27T18:47:38.330Z,5.98
2023-03-27T18:50:08.181Z,5.89
2023-03-27T18:52:37.674Z,5.92
2023-03-27T18:55:09.110Z,5.92
2023-03-27T18:57:39.114Z,5.88
2023-03-27T19:00:10.364Z,6.15
2023-03-27T19:02:40.673Z,5.97
2023-03-27T19:05:10.337Z,6.19
2023-03-27T19:07:44.528Z,6.10
2023-03-27T19:10:30.674Z,6.19
2023-03-27T19:13:19.133Z,6.25
2023-03-27T19:16:14.874Z,6.13
2023-03-27T19:19:07.726Z,5.95
2023-03-27T19:22:08.240Z,5.88
2023-03-27T19:25:18.966Z,6.06
2023-03-27T19:27:49.026Z,6.03
2023-03-27T19:30:19.136Z,6.18
2023-03-27T19:32:49.118Z,6.29
2023-03-27T19:35:18.890Z,6.11
2023-03-27T19:37:48.884Z,6.19
2023-03-27T19:40:18.317Z,6.18
2023-03-27T19:42:49.156Z,5.97
2023-03-27T19:45:18.477Z,5.92
2023-03-27T19:47:49.917Z,5.96
2023-03-27T19:50:19.466Z,5.81
2023-03-27T19:53:08.939Z,5.85
2023-03-27T19:55:39.079Z,5.64
2023-03-27T19:58:08.024Z,5.50
2023-03-27T20:00:40.755Z,5.49
2023-03-27T20:03:11.162Z,5.56
2023-03-27T20:05:47.405Z,5.65
2023-03-27T20:08:17.942Z,5.73
2023-03-27T20:10:48.581Z,5.83
2023-03-27T20:13:19.334Z,5.68
2023-03-27T20:15:50.971Z,5.43
2023-03-27T20:18:22.966Z,5.53
2023-03-27T20:20:55.857Z,5.34
2023-03-27T20:23:25.286Z,5.55
2023-03-27T20:25:57.764Z,5.44
2023-03-27T20:28:27.251Z,5.64
2023-03-27T20:30:56.149Z,5.42
2023-03-27T20:33:25.038Z,5.05
2023-03-27T20:35:53.841Z,5.03
2023-03-27T20:38:24.082Z,5.02
2023-03-27T20:40:55.678Z,4.81
2023-03-27T20:43:28.136Z,5.11
2023-03-27T20:46:00.262Z,5.05
2023-03-27T20:48:41.127Z,5.31
2023-03-27T20:51:25.144Z,5.40
2023-03-27T20:53:59.294Z,5.03
2023-03-27T20:56:28.755Z,5.13
2023-03-27T20:58:57.500Z,5.07
2023-03-27T21:01:28.205Z,5.21
2023-03-27T21:03:59.509Z,4.99
2023-03-27T21:06:28.528Z,5.09
2023-03-27T21:08:57.621Z,5.24
2023-03-27T21:11:27.115Z,5.14
2023-03-27T21:13:56.238Z,4.97
2023-03-27T21:16:25.425Z,5.11
2023-03-27T21:18:54.310Z,5.31
2023-03-27T21:21:23.568Z,5.19
2023-03-27T21:23:55.109Z,5.26
2023-03-27T21:26:24.499Z,5.20
